Bodega Marine Reserve, California Weather observations

Data are for 10 minute period ending at time listed.
 Day   Time   Solar   Ave.   Ave.  Ave.  Vector  Max.   Baro.   Total    
  of    of     Rad.   Air    Rel.  Wind   Wind   Wind  Press.  Precip.   
Year   Day            Temp.  Hum.  Speed  Dir.   Gust                    
2016   (PST)  Kw/m2    F      %     mph   deg.    mph    mb.     in.     
-------------------------------------------------------------------------
  37   13:10   0.54   60.8    62    3.8   144     5.0   1027.4    0.00 
  37   13:20   0.51   60.5    62    3.8   145     5.2   1027.1    0.00 
  37   13:30   0.57   61.4    61    3.3   152     5.3   1026.8    0.00 
  37   13:40   0.57   62.9    63    3.4   270     5.6   1026.8    0.00 
  37   13:50   0.59   62.2    64    4.8   297     6.8   1026.4    0.00 
  37   14:00   0.47   61.5    64    6.2   296     8.0   1026.4    0.00 
  37   14:10   0.29   59.2    67    5.8   304     7.5   1026.4    0.00 
  37   14:20   0.60   59.9    67    4.8   294     7.1   1026.1    0.00 
  37   14:30   0.59   61.0    65    4.6   283     6.7   1025.7    0.00 
  37   14:40   0.60   61.7    65    5.8   286     7.8   1025.7    0.00 
  37   14:50   0.47   60.7    66    7.5   300     9.4   1025.4    0.00 
  37   15:00   0.46   58.7    66    9.9   299    13.2   1025.7    0.00 
  37   15:10   0.52   58.5    67   11.0   303    13.3   1025.7    0.00 
  37   15:20   0.47   58.2    70   10.2   305    12.6   1025.4    0.00 
  37   15:30   0.47   57.8    70   10.1   301    12.9   1025.4    0.00 
  37   15:40   0.44   57.8    70    7.8   310    11.8   1025.1    0.00 
  37   15:50   0.41   57.7    70    8.3   306    11.3   1025.1    0.00 
  37   16:00   0.37   57.5    71    7.4   303     9.6   1025.1    0.00 
  37   16:10   0.35   58.0    70    6.6   312     9.2   1025.1    0.00 
  37   16:20   0.30   58.1    69    5.7   307     8.2   1024.7    0.00 
  37   16:30   0.30   58.1    70    5.6   298     7.3   1024.7    0.00 
  37   16:40   0.30   58.0    71    6.2   293     8.3   1024.7    0.00 
  37   16:50   0.27   57.5    74    7.8   278     9.2   1024.7    0.00 
  37   17:00   0.25   56.8    77    8.9   279    10.8   1024.7    0.00 
  37   17:10   0.23   56.8    78    7.6   290    10.1   1024.7    0.00 
  37   17:20   0.20   56.4    79    8.5   299    10.4   1024.7    0.00 
  37   17:30   0.13   56.0    80    6.5   299     8.7   1024.4    0.00 
  37   17:40   0.12   56.0    80    6.3   294     8.6   1024.4    0.00 
  37   17:50   0.07   55.4    80    5.7   303     8.1   1024.4    0.00 
  37   18:00   0.07   54.9    82    5.4   301     7.1   1024.0    0.00 
  37   18:10   0.05   54.5    83    5.6   304     7.5   1024.0    0.00 
  37   18:20   0.03   54.1    84    6.9   301     9.6   1024.0    0.00 
  37   18:30   0.02   53.7    85    7.8   302    10.1   1024.0    0.00 
  37   18:40   0.01   53.6    86    5.8   308     8.5   1023.7    0.00 
  37   18:50   0.00   53.4    87    5.9   305     8.4   1023.7    0.00 
  37   19:00   0.00   53.2    88    4.9   309     7.3   1023.7    0.00 
  37   19:10   0.00   52.9    89    5.3   315     8.6   1023.7    0.00 
  37   19:20   0.00   52.7    89    1.2   329     3.9   1023.7    0.00 
  37   19:30   0.00   52.1    89    3.5   302     5.6   1023.7    0.00 
  37   19:40   0.00   51.4    90    5.5   306     6.9   1024.0    0.00 
  37   19:50   0.00   51.4    90    4.3   311     6.1   1024.0    0.00 
  37   20:00   0.00   51.5    91    6.2   312     8.8   1023.7    0.00 
  37   20:10   0.00   52.1    90    7.7   319    11.8   1023.7    0.00 
  37   20:20   0.00   52.7    89    7.5   319    10.2   1023.7    0.00 
  37   20:30   0.00   52.8    88    7.6   317    10.7   1023.7    0.00 
  37   20:40   0.00   52.9    88    7.9   310    11.2   1023.7    0.00 
  37   20:50   0.00   52.8    89    6.4   317     9.6   1023.7    0.00 
  37   21:00   0.00   52.4    89    3.8   302     6.9   1023.7    0.00 
  37   21:10   0.00   51.8    89    2.6   323     3.8   1023.7    0.00 
  37   21:20   0.00   51.2    89    1.9    63     4.2   1023.7    0.00 
  37   21:30   0.00   51.1    90    1.1   143     2.2   1023.7    0.00 
  37   21:40   0.00   51.0    89    1.6   255     2.9   1023.7    0.00 
  37   21:50   0.00   50.4    90    2.1   120     3.1   1024.0    0.00 
  37   22:00   0.00   50.5    90    1.2   131     2.0   1024.0    0.00 
  37   22:10   0.00   50.1    90    0.8   149     1.7   1023.7    0.00 
  37   22:20   0.00   49.3    90    1.4   122     2.4   1023.7    0.00 
  37   22:30   0.00   49.9    91    3.5   155     4.3   1023.7    0.00 
  37   22:40   0.00   49.0    90    2.5   260     5.8   1023.7    0.00 
  37   22:50   0.00   50.3    91    3.3   141     5.5   1023.7    0.00 
  37   23:00   0.00   50.5    91    4.3   151     6.0   1023.7    0.00 
  37   23:10   0.00   50.9    90    3.1   139     5.1   1023.7    0.00 
  37   23:20   0.00   50.0    90    2.1   116     3.4   1023.7    0.00 
  37   23:30   0.00   50.0    91    2.1   104     3.9   1023.7    0.00 
  37   23:40   0.00   49.8    90    1.7   108     2.6   1023.7    0.00 
  37   23:50   0.00   49.2    91    0.8   118     2.0   1023.7    0.00 
  38    0:00   0.00   48.8    91    1.6   154     4.5   1023.7    0.00 
  38    0:10   0.00   49.1    91    3.9   158     5.0   1023.7    0.00 
  38    0:20   0.00   49.0    91    3.7   153     4.8   1023.4    0.00 
  38    0:30   0.00   49.4    92    3.1   142     5.7   1023.7    0.00 
  38    0:40   0.00   49.8    92    5.3   153     7.1   1023.7    0.00 
  38    0:50   0.00   50.2    91    5.6   151     7.7   1023.4    0.00 
  38    1:00   0.00   50.3    91    5.5   148     6.7   1023.4    0.00 
  38    1:10   0.00   50.3    91    4.5   141     5.7   1023.4    0.00 
  38    1:20   0.00   50.6    90    4.5   138     6.4   1023.0    0.00 
  38    1:30   0.00   51.0    89    3.3   138     5.1   1023.0    0.00 
  38    1:40   0.00   50.6    89    3.3   146     4.7   1023.0    0.00 
  38    1:50   0.00   50.8    88    4.0   148     5.0   1023.0    0.00 
  38    2:00   0.00   50.6    88    4.4   154     6.1   1023.0    0.00 
  38    2:10   0.00   51.0    87    4.7   144     6.4   1023.0    0.00 
  38    2:20   0.00   51.2    86    4.4   147     7.5   1022.7    0.00 
  38    2:30   0.00   51.3    86    7.1   149     8.2   1022.7    0.00 
  38    2:40   0.00   51.1    87    6.0   140     7.5   1022.7    0.00 
  38    2:50   0.00   51.3    87    5.9   145     8.8   1022.7    0.00 
  38    3:00   0.00   51.0    87    3.5   151     5.6   1022.7    0.00 
  38    3:10   0.00   50.9    87    4.7   150     5.9   1022.7    0.00 
  38    3:20   0.00   50.7    87    4.2   152     5.4   1022.7    0.00 
  38    3:30   0.00   50.2    86    2.7   191     5.7   1022.7    0.00 
  38    3:40   0.00   48.5    87    0.2   325     1.5   1022.7    0.00 
  38    3:50   0.00   48.2    88    0.4   308     1.4   1022.4    0.00 
  38    4:00   0.00   49.1    89    0.9   208     2.2   1022.4    0.00 
  38    4:10   0.00   49.5    88    1.7   171     2.6   1022.4    0.00 
  38    4:20   0.00   48.5    87    1.9   162     3.1   1022.4    0.00 
  38    4:30   0.00   47.4    89    2.1   146     3.0   1022.4    0.00 
  38    4:40   0.00   47.5    89    1.6   158     2.3   1022.0    0.00 
  38    4:50   0.00   46.6    90    1.8   138     3.0   1022.0    0.00 
  38    5:00   0.00   46.5    89    1.2   159     2.6   1022.0    0.00 
  38    5:10   0.00   46.2    90    2.1   281     3.1   1022.0    0.00 
  38    5:20   0.00   46.0    90    1.0   114     2.9   1022.0    0.00 
  38    5:30   0.00   45.6    91    0.7   140     1.8   1022.0    0.00 
  38    5:40   0.00   46.9    90    0.8   164     2.1   1022.0    0.00 
  38    5:50   0.00   45.8    90    1.7   160     3.3   1022.0    0.00 
  38    6:00   0.00   44.1    91    1.1   127     2.7   1022.0    0.00 
  38    6:10   0.00   46.0    92    0.7   148     1.5   1022.0    0.00 
  38    6:20   0.00   44.8    91    1.5   153     3.9   1021.7    0.00 
  38    6:30   0.00   45.9    91    2.9   144     4.3   1021.7    0.00 
  38    6:40   0.00   45.0    92    1.5   169     2.2   1021.7    0.00 
  38    6:50   0.00   45.9    92    1.0   178     1.8   1021.7    0.00 
  38    7:00   0.00   45.4    92    1.7   142     3.4   1021.7    0.00 
  38    7:10   0.00   46.1    92    1.6   142     3.6   1021.7    0.01 
  38    7:20   0.00   45.9    92    1.2   119     3.1   1021.7    0.00 
  38    7:30   0.00   46.6    92    0.4   124     1.3   1021.7    0.00 
  38    7:40   0.00   45.5    92    0.4   227     1.3   1021.7    0.00 
  38    7:50   0.00   45.8    93    0.8   146     3.4   1021.7    0.00 
  38    8:00   0.00   46.0    92    1.3   152     2.3   1022.0    0.00 
  38    8:10   0.00   45.4    92    1.0   176     2.0   1022.0    0.00 
  38    8:20   0.00   45.5    93    0.0   197     0.4   1022.0    0.00 
  38    8:30   0.02   46.2    93    2.0   130     3.6   1022.0    0.00 
  38    8:40   0.04   46.7    93    1.7   112     3.9   1022.0    0.00 
  38    8:50   0.06   48.0    92    1.3   136     2.1   1022.0    0.00 
  38    9:00   0.08   49.4    93    1.7   131     2.9   1022.0    0.00 
  38    9:10   0.11   51.5    92    1.1   145     2.9   1022.0    0.00 
  38    9:20   0.14   52.6    92    1.7   126     3.3   1022.0    0.00 
  38    9:30   0.16   53.3    90    0.9    11     2.6   1022.4    0.00 
  38    9:40   0.18   54.0    90    1.1   290     2.6   1022.4    0.00 
  38    9:50   0.21   54.9    89    1.0   312     1.9   1022.4    0.00 
  38   10:00   0.23   55.9    88    0.5   184     2.2   1022.0    0.00 
  38   10:10   0.26   57.3    86    0.5   146     2.1   1022.0    0.00 
  38   10:20   0.28   57.8    83    1.9   168     4.3   1022.4    0.00 
  38   10:30   0.30   56.9    82    1.9   133     3.9   1022.4    0.00 
  38   10:40   0.33   56.6    82    2.4   147     3.7   1022.4    0.00 
  38   10:50   0.35   58.0    80    1.4   138     2.7   1022.4    0.00 
  38   11:00   0.38   59.6    76    2.2   133     4.8   1022.4    0.00 
  38   11:10   0.40   58.1    75    3.2   146     5.1   1022.4    0.00 
  38   11:20   0.42   57.7    75    3.1   145     5.2   1022.4    0.00 
  38   11:30   0.44   59.8    72    1.2   148     3.1   1022.7    0.00 
  38   11:40   0.46   59.8    71    3.2   146     4.9   1022.7    0.00 
  38   11:50   0.47   59.2    73    3.7   132     5.0   1022.7    0.00 
  38   12:00   0.49   60.0    72    3.5   132     6.0   1022.4    0.00 
  38   12:10   0.50   60.0    72    4.0   134     5.6   1022.4    0.00 
  38   12:20   0.51   59.9    70    3.1   142     5.0   1022.4    0.00 
  38   12:30   0.53   61.3    68    2.0   164     4.6   1022.0    0.00 
  38   12:40   0.54   62.5    65    3.7   274     5.8   1022.0    0.00 
  38   12:50   0.54   62.5    64    5.1   268     7.4   1021.7    0.00 
  38   13:00   0.55   61.1    66    5.7   265     7.3   1021.7    0.00 

Return to Bodega Marine Reserve graphs page.


Western Regional Climate Center,wrcc@dri.edu